createdAt,value
2019-04-26T00:02:23.205Z,1003.24
2019-04-26T00:07:19.140Z,1003.12
2019-04-26T00:12:14.650Z,1003.07
2019-04-26T00:17:11.540Z,1002.97
2019-04-26T00:22:07.235Z,1002.95
2019-04-26T00:27:03.167Z,1002.85
2019-04-26T00:31:58.977Z,1002.78
2019-04-26T00:36:54.583Z,1002.81
2019-04-26T00:41:51.719Z,1002.77
2019-04-26T00:46:48.409Z,1002.80
2019-04-26T00:51:44.902Z,1002.87
2019-04-26T00:56:40.488Z,1002.85
2019-04-26T01:01:36.607Z,1003.02
2019-04-26T01:06:33.487Z,1003.14
2019-04-26T01:11:29.288Z,1003.18
2019-04-26T01:16:25.137Z,1003.04
2019-04-26T01:21:20.829Z,1003.12
2019-04-26T01:26:17.854Z,1003.31
2019-04-26T01:31:13.631Z,1003.56
2019-04-26T01:36:13.191Z,1003.55
2019-04-26T01:41:08.375Z,1003.30
2019-04-26T01:46:04.291Z,1003.41
2019-04-26T01:51:00.192Z,1003.53
2019-04-26T01:55:57.280Z,1003.68
2019-04-26T02:00:53.754Z,1003.59
2019-04-26T02:05:50.981Z,1003.56
2019-04-26T02:10:47.351Z,1003.46
2019-04-26T02:15:43.009Z,1003.50
2019-04-26T02:20:38.991Z,1003.59
2019-04-26T02:25:34.989Z,1003.65
2019-04-26T02:30:32.522Z,1003.74
2019-04-26T02:35:30.297Z,1003.86
2019-04-26T02:40:28.118Z,1003.93
2019-04-26T02:45:26.910Z,1003.87
2019-04-26T02:50:23.904Z,1003.82
2019-04-26T02:55:19.806Z,1003.76
2019-04-26T03:00:15.938Z,1003.74
2019-04-26T03:05:11.737Z,1003.86
2019-04-26T03:10:07.668Z,1003.76
2019-04-26T03:15:13.337Z,1003.57
2019-04-26T03:20:03.184Z,1003.89
2019-04-26T03:24:59.325Z,1003.63
2019-04-26T03:30:17.378Z,1003.62
2019-04-26T03:34:55.366Z,1003.41
2019-04-26T03:39:51.469Z,1003.48
2019-04-26T03:44:47.136Z,1003.49
2019-04-26T03:49:44.200Z,1003.50
2019-04-26T03:54:41.108Z,1003.79
2019-04-26T03:59:38.351Z,1003.92
2019-04-26T04:04:37.058Z,1004.17
2019-04-26T04:09:32.710Z,1004.08
2019-04-26T04:14:28.847Z,1004.27
2019-04-26T04:19:24.431Z,1004.22
2019-04-26T04:24:20.490Z,1004.21
2019-04-26T04:29:17.301Z,1004.18
2019-04-26T04:34:12.963Z,1004.26
2019-04-26T04:39:12.886Z,1004.13
2019-04-26T04:44:07.974Z,1004.23
2019-04-26T04:49:03.686Z,1004.04
2019-04-26T04:54:00.575Z,1004.05
2019-04-26T04:58:56.425Z,1004.33
2019-04-26T05:03:53.168Z,1004.41
2019-04-26T05:08:51.171Z,1004.58
2019-04-26T05:13:47.860Z,1004.67
2019-04-26T05:18:44.140Z,1004.67
2019-04-26T05:23:40.902Z,1004.49
2019-04-26T05:28:38.012Z,1004.51
2019-04-26T05:33:33.322Z,1004.45
2019-04-26T05:38:30.524Z,1004.69
2019-04-26T05:43:26.044Z,1004.76
2019-04-26T05:48:21.845Z,1004.80
2019-04-26T05:53:18.352Z,1004.90
2019-04-26T05:58:14.188Z,1004.99
2019-04-26T06:03:09.972Z,1004.85
2019-04-26T06:08:05.789Z,1004.78
2019-04-26T06:13:01.563Z,1004.94
2019-04-26T06:17:58.147Z,1005.00
2019-04-26T06:22:56.681Z,1005.03
2019-04-26T06:27:53.522Z,1005.05
2019-04-26T06:32:56.421Z,1005.02
2019-04-26T06:37:49.107Z,1005.12
2019-04-26T06:42:45.055Z,1005.08
2019-04-26T06:47:40.615Z,1005.17
2019-04-26T06:52:37.460Z,1005.20
2019-04-26T06:57:34.222Z,1005.35
2019-04-26T07:02:30.690Z,1005.43
2019-04-26T07:07:26.331Z,1005.37
2019-04-26T07:12:21.976Z,1005.33
2019-04-26T07:17:18.003Z,1005.54
2019-04-26T07:22:13.807Z,1005.71
2019-04-26T07:27:10.953Z,1005.73
2019-04-26T07:32:07.338Z,1005.87
2019-04-26T07:37:02.991Z,1005.68
2019-04-26T07:42:01.580Z,1005.49
2019-04-26T07:46:56.700Z,1005.55
2019-04-26T07:51:52.661Z,1005.56
2019-04-26T07:56:49.148Z,1005.85
2019-04-26T08:01:45.014Z,1005.97
2019-04-26T08:06:41.097Z,1006.06
2019-04-26T08:11:37.982Z,1006.09
2019-04-26T08:16:35.124Z,1006.10
2019-04-26T08:21:32.239Z,1006.06
2019-04-26T08:26:27.901Z,1006.09
2019-04-26T08:31:25.579Z,1006.34
2019-04-26T08:36:23.200Z,1006.41
2019-04-26T08:41:22.044Z,1006.50
2019-04-26T08:46:18.068Z,1006.62
2019-04-26T08:51:20.378Z,1006.66
2019-04-26T08:56:15.257Z,1006.71
2019-04-26T09:01:11.468Z,1006.69
2019-04-26T09:06:09.303Z,1006.73
2019-04-26T09:11:05.006Z,1006.76
2019-04-26T09:16:02.012Z,1006.72
2019-04-26T09:20:57.963Z,1006.63
2019-04-26T09:25:59.302Z,1006.41
2019-04-26T09:30:55.086Z,1006.46
2019-04-26T09:35:51.909Z,1006.72
2019-04-26T09:40:47.645Z,1006.84
2019-04-26T09:45:43.634Z,1006.91
2019-04-26T09:50:39.780Z,1006.93
2019-04-26T09:55:36.121Z,1006.81
2019-04-26T10:00:32.110Z,1006.89
2019-04-26T10:05:29.194Z,1006.79
2019-04-26T10:10:25.062Z,1006.74
2019-04-26T10:15:22.546Z,1006.75
2019-04-26T10:20:20.715Z,1006.75
2019-04-26T10:25:17.123Z,1006.75
2019-04-26T10:30:12.984Z,1006.61
2019-04-26T10:35:09.364Z,1006.60
2019-04-26T10:40:05.241Z,1006.68
2019-04-26T10:45:00.961Z,1006.75
2019-04-26T10:49:58.237Z,1006.69
2019-04-26T10:54:54.805Z,1006.73
2019-04-26T10:59:50.431Z,1006.78
2019-04-26T11:04:46.214Z,1006.83
2019-04-26T11:09:41.883Z,1006.91
2019-04-26T11:14:37.513Z,1007.04
2019-04-26T11:19:35.444Z,1007.13
2019-04-26T11:24:31.589Z,1007.07
2019-04-26T11:29:28.724Z,1007.07
2019-04-26T11:34:25.516Z,1007.10
2019-04-26T11:39:20.931Z,1007.00
2019-04-26T11:44:16.900Z,1006.91
2019-04-26T11:49:12.612Z,1006.94
2019-04-26T11:54:09.752Z,1006.96
2019-04-26T11:59:06.749Z,1006.79
2019-04-26T12:04:04.039Z,1006.83
2019-04-26T12:09:00.276Z,1007.00
2019-04-26T12:13:59.553Z,1006.88
2019-04-26T12:18:55.431Z,1006.95
2019-04-26T12:23:54.928Z,1007.04
2019-04-26T12:28:50.218Z,1007.07
2019-04-26T12:33:45.971Z,1007.00
2019-04-26T12:38:42.759Z,1007.09
2019-04-26T12:43:39.011Z,1007.05
2019-04-26T12:48:34.680Z,1007.12
2019-04-26T12:53:31.448Z,1007.09
2019-04-26T12:58:28.990Z,1007.19
2019-04-26T13:03:28.991Z,1007.08
2019-04-26T13:08:23.915Z,1007.06
2019-04-26T13:13:21.012Z,1006.89
2019-04-26T13:18:17.608Z,1006.89
2019-04-26T13:23:13.759Z,1006.91
2019-04-26T13:28:10.858Z,1006.88
2019-04-26T13:33:06.599Z,1006.82
2019-04-26T13:38:05.158Z,1006.85
2019-04-26T13:43:02.265Z,1007.01
2019-04-26T13:47:57.911Z,1007.01
2019-04-26T13:52:54.092Z,1007.07
2019-04-26T13:57:50.136Z,1007.18
2019-04-26T14:02:46.992Z,1007.17
2019-04-26T14:07:42.349Z,1007.18
2019-04-26T14:12:39.499Z,1007.24
2019-04-26T14:17:35.930Z,1007.25
2019-04-26T14:22:32.219Z,1007.29
2019-04-26T14:27:27.715Z,1007.16
2019-04-26T14:32:24.292Z,1007.16
2019-04-26T14:37:20.607Z,1007.30
2019-04-26T14:42:17.319Z,1007.18
2019-04-26T14:47:17.482Z,1007.37
2019-04-26T14:52:12.736Z,1007.34
2019-04-26T14:57:16.928Z,1007.31
2019-04-26T15:02:10.440Z,1007.41
2019-04-26T15:07:07.055Z,1007.44
2019-04-26T15:12:03.533Z,1007.46
2019-04-26T15:16:58.987Z,1007.38
2019-04-26T15:21:54.924Z,1007.35
2019-04-26T15:26:51.650Z,1007.42
2019-04-26T15:31:47.342Z,1007.36
2019-04-26T15:36:43.423Z,1007.46
2019-04-26T15:41:46.777Z,1007.30
2019-04-26T15:46:42.543Z,1007.36
2019-04-26T15:51:42.671Z,1007.20
2019-04-26T15:56:38.395Z,1007.12
2019-04-26T16:01:34.331Z,1007.17
2019-04-26T16:06:29.921Z,1007.04
2019-04-26T16:11:26.272Z,1007.07
2019-04-26T16:16:27.853Z,1007.18
2019-04-26T16:21:22.655Z,1007.13
2019-04-26T16:26:18.141Z,1007.09
2019-04-26T16:31:13.954Z,1007.29
2019-04-26T16:36:09.682Z,1007.17
2019-04-26T16:41:06.056Z,1007.21
2019-04-26T16:46:02.912Z,1007.32
2019-04-26T16:51:01.018Z,1007.36
2019-04-26T16:55:58.358Z,1007.39
2019-04-26T17:00:57.198Z,1007.42
2019-04-26T17:06:04.741Z,1007.38
2019-04-26T17:10:56.430Z,1007.32
2019-04-26T17:15:57.982Z,1007.32
2019-04-26T17:20:51.039Z,1007.32
2019-04-26T17:25:46.714Z,1007.28
2019-04-26T17:30:44.615Z,1007.39
2019-04-26T17:35:42.054Z,1007.38
2019-04-26T17:40:38.074Z,1007.30
2019-04-26T17:45:36.235Z,1007.37
2019-04-26T17:50:35.363Z,1007.41
2019-04-26T17:55:33.671Z,1007.33
2019-04-26T18:00:44.662Z,1007.33
2019-04-26T18:05:45.108Z,1007.46
2019-04-26T18:10:30.581Z,1007.46
2019-04-26T18:15:25.777Z,1007.48
2019-04-26T18:20:23.407Z,1007.64
2019-04-26T18:25:18.891Z,1007.49
2019-04-26T18:30:14.705Z,1007.54
2019-04-26T18:35:15.287Z,1007.61
2019-04-26T18:40:09.435Z,1007.58
2019-04-26T18:45:06.660Z,1007.55
2019-04-26T18:50:03.336Z,1007.54
2019-04-26T18:54:58.533Z,1007.65
2019-04-26T18:59:55.355Z,1007.87
2019-04-26T19:04:50.665Z,1007.88
2019-04-26T19:09:58.789Z,1007.93
2019-04-26T19:14:49.870Z,1008.00
2019-04-26T19:19:45.204Z,1007.98
2019-04-26T19:24:42.301Z,1008.05
2019-04-26T19:29:37.485Z,1007.99
2019-04-26T19:34:33.213Z,1008.13
2019-04-26T19:39:33.300Z,1008.06
2019-04-26T19:44:27.921Z,1008.20
2019-04-26T19:49:25.918Z,1008.11
2019-04-26T19:54:27.720Z,1008.11
2019-04-26T19:59:23.420Z,1008.16
2019-04-26T20:04:24.798Z,1008.07
2019-04-26T20:09:22.847Z,1008.01
2019-04-26T20:14:19.637Z,1008.06
2019-04-26T20:19:17.880Z,1008.00
2019-04-26T20:24:18.331Z,1008.01
2019-04-26T20:29:14.965Z,1007.98
2019-04-26T20:34:14.465Z,1007.85
2019-04-26T20:39:12.483Z,1007.91
2019-04-26T20:44:10.083Z,1007.83
2019-04-26T20:49:09.001Z,1007.81
2019-04-26T20:54:05.007Z,1007.86
2019-04-26T20:59:02.550Z,1007.79
2019-04-26T21:03:59.225Z,1007.91
2019-04-26T21:08:59.137Z,1007.88
2019-04-26T21:13:54.306Z,1007.95
2019-04-26T21:18:50.219Z,1007.92
2019-04-26T21:23:45.884Z,1008.00
2019-04-26T21:28:42.618Z,1007.79
2019-04-26T21:33:39.871Z,1007.81
2019-04-26T21:38:36.350Z,1007.68
2019-04-26T21:43:34.704Z,1007.60
2019-04-26T21:48:30.927Z,1007.61
2019-04-26T21:53:29.729Z,1007.72
2019-04-26T21:58:25.141Z,1007.59
2019-04-26T22:03:20.921Z,1007.64
2019-04-26T22:08:17.449Z,1007.64
2019-04-26T22:13:15.380Z,1007.65
2019-04-26T22:18:14.870Z,1007.59
2019-04-26T22:23:16.280Z,1007.57
2019-04-26T22:28:10.670Z,1007.47
2019-04-26T22:33:07.444Z,1007.60
2019-04-26T22:38:03.990Z,1007.51
2019-04-26T22:42:59.560Z,1007.40
2019-04-26T22:47:55.406Z,1007.42
2019-04-26T22:52:52.460Z,1007.53
2019-04-26T22:57:49.586Z,1007.50
2019-04-26T23:02:46.870Z,1007.56
2019-04-26T23:07:42.430Z,1007.53
2019-04-26T23:12:38.159Z,1007.55
2019-04-26T23:17:34.974Z,1007.52
2019-04-26T23:22:33.665Z,1007.52
2019-04-26T23:27:29.076Z,1007.70
2019-04-26T23:32:24.829Z,1007.62
2019-04-26T23:37:25.886Z,1007.63
2019-04-26T23:42:20.750Z,1007.59
2019-04-26T23:47:22.378Z,1007.60
2019-04-26T23:52:18.651Z,1007.59
2019-04-26T23:57:13.878Z,1007.52
